Ingonish, Canada
Current Conditions -  °F | °C
As of 11:43 AM on Thursday 23 Oct 2014 (Local Time) from CYQY Reporting Station
Broken Clouds Broken Clouds  
Wind Chill: 54°   Ceiling: 1600
Heat Index: 54°   Visibility: 10mi
Dew Point: 46°   Wind: 17mph
Humidity: 77%   Direction: 90°E
Pressure: 30.23"   Gusts: 23mph
Location:  46.69°N, 60.37°W
Report Text: CYQY 231443Z 09015G20KT 10SM BKN016 BKN098 BKN210 12/08 A3023 RMK SC5AC1CI1 SLP237
Loading
Personal Weather Stations






























Interactive Weather Map
Tropical Storm Tracking
New forecast layout! Learn more

10-Day Weather Forecast

Advertisements
Track Severe Weather on mobile